Hlavní strana
METAR-TAF:

METAR-TAF

Letiště :

Dubbo, Austrálie

zeměpisná šířka: 32-12S, zeměpisná délka: 148-34E, výška: 275 m

Aktuální stav počasí

Zpráva byla vytvořena před 41 minutami, v 04:30 UTC
Východoseverovýchodní vítr 6 kt, proměnlivý mezi severoseverozápadním a východním
Teplota 23°C
Vlhkost vzduchu 47%
Tlak 1018 hPa
Viditelnost 10 km a více

METAR: YSDU 070430Z AUTO 06006KT 330V080 9999 // NCD 23/11 Q1018 RF00.0/000.0

Čas: 15:11 (05:11 UTC)

Předpověď počasí

Zpráva byla vytvořena před 5 hodinami a 51 minutami, v 23:20 UTC
Předpověď platná od 07 v 00 UTC do 07 v 18 UTC
Východní vítr 10 kt
Viditelnost 10 km a více
Polojasno ve výšce 4000 ft

TAF: YSDU 062320Z 0700/0718 09010KT 9999 SCT040

Stav a předpovědi počasí z více než 4 000 letišť (zprávy METAR a TAF).

Červené a žluté tečky na mapě představují dostupné meteorologické stanice.

Když kurzor umístíte na tečku, zobrazí se název stanice.

Pak kliknutím zobrazíte stav a předpověď počasí.

Chcete-li změnit mapu, kliknutím na zelené tlačítko se znaménkem +mapu přiblížíte, kliknutím na zelené tlačítko se znaménkem – mapu oddálíte a kliknutím na zelené šipky přejdete na sousední mapy.


METAR-TAF: